• Join FlightAware (Why Join?)
  • Login
  • US Flag 
08:57PM EDT


 

Airport Tracker/Info


-or-


 

Live Flight TrackerFlight Track Log ✈ AUB1736 ✈ 01-Jul-2013 ✈ EDDM / MUC - LATI / TIA

Flight Track Log - Related Links

Times and Time Zones

All times are in EDT time to prevent confusion due to time zone crossing. See the AUB1736 flight status page for this flight to view local times or setup timezone preferences in your user account.

Time Position Orientation Groundspeed Altitude Reporting Facility
EDT Latitude Longitude Course Direction KTS MPH feet Rate Location/Type
04:11AM 47.7049 12.6465 138° Southeast  Level Estimated
04:12AM 47.6116 12.7676 139° Southeast  Level Estimated
04:13AM 47.5183 12.8883 139° Southeast  Level Estimated
04:14AM 47.4248 13.0086 139° Southeast  Level Estimated
04:15AM 47.3312 13.1285 139° Southeast  Level Estimated
04:16AM 47.2375 13.2479 139° Southeast  Level Estimated
04:17AM 47.1436 13.3670 139° Southeast  Level Estimated
04:18AM 47.0497 13.4856 139° Southeast  Level Estimated
04:19AM 46.9556 13.6038 139° Southeast  Level Estimated
04:20AM 46.8614 13.7215 139° Southeast  Level Estimated
04:21AM 46.7670 13.8389 140° Southeast  Level Estimated
04:22AM 46.6726 13.9558 140° Southeast  Level Estimated
04:23AM 46.5780 14.0724 140° Southeast  Level Estimated
04:24AM 46.4833 14.1885 140° Southeast  Level Estimated
04:25AM 46.3885 14.3042 140° Southeast  Level Estimated
04:26AM 46.2935 14.4196 140° Southeast  Level Estimated
04:27AM 46.1985 14.5345 140° Southeast  Level Estimated
04:28AM 46.1034 14.6490 140° Southeast  Level Estimated
04:29AM 46.0081 14.7632 140° Southeast  Level Estimated
04:30AM 45.9127 14.8769 140° Southeast  Level Estimated
04:31AM 45.8172 14.9902 140° Southeast  Level Estimated
04:32AM 45.7216 15.1032 140° Southeast  Level Estimated
04:33AM 45.6259 15.2158 141° Southeast  Level Estimated
04:34AM 45.5300 15.3280 141° Southeast  Level Estimated
04:35AM 45.4341 15.4398 141° Southeast  Level Estimated
04:36AM 45.3381 15.5512 141° Southeast  Level Estimated
04:37AM 45.2419 15.6623 141° Southeast  Level Estimated
04:38AM 45.1456 15.7729 141° Southeast  Level Estimated
04:39AM 45.0493 15.8833 141° Southeast  Level Estimated
04:40AM 44.9528 15.9932 141° Southeast  Level Estimated
04:41AM 44.8562 16.1027 141° Southeast  Level Estimated
04:42AM 44.7595 16.2119 141° Southeast  Level Estimated
04:43AM 44.6628 16.3208 141° Southeast  Level Estimated
04:44AM 44.5659 16.4292 141° Southeast  Level Estimated
04:45AM 44.4689 16.5373 141° Southeast  Level Estimated
04:46AM 44.3718 16.6451 142° Southeast  Level Estimated
04:47AM 44.2746 16.7525 142° Southeast  Level Estimated
04:48AM 44.1773 16.8595 142° Southeast  Level Estimated
04:49AM 44.0799 16.9662 142° Southeast  Level Estimated
04:50AM 43.9824 17.0725 142° Southeast  Level Estimated
04:51AM 43.8848 17.1785 142° Southeast  Level Estimated
04:52AM 43.7871 17.2842 142° Southeast  Level Estimated
04:53AM 43.6893 17.3895 142° Southeast  Level Estimated
04:54AM 43.5914 17.4944 142° Southeast  Level Estimated
04:55AM 43.4935 17.5990 142° Southeast  Level Estimated
04:56AM 43.3954 17.7033 142° Southeast  Level Estimated
04:57AM 43.2972 17.8072 142° Southeast  Level Estimated
04:58AM 43.1990 17.9108 142° Southeast  Level Estimated
04:59AM 43.1006 18.0141 143° Southeast  Level Estimated
05:00AM 43.0022 18.1170 143° Southeast  Level Estimated
05:01AM 42.8963 18.2273 143° Southeast  Level Estimated
05:02AM 42.7902 18.3372 143° Southeast  Level Estimated
05:03AM 42.6841 18.4466 143° Southeast  Level Estimated
05:04AM 42.5779 18.5558 143° Southeast  Level Estimated
05:05AM 42.4716 18.6645 143° Southeast  Level Estimated
05:06AM 42.3652 18.7729 143° Southeast  Level Estimated
05:07AM 42.2587 18.8809 143° Southeast  Level Estimated
05:08AM 42.1521 18.9886 143° Southeast  Level Estimated
05:09AM 42.0453 19.0958 143° Southeast  Level Estimated
05:10AM 41.9385 19.2028 143° Southeast  Level Estimated
05:11AM 41.8316 19.3093 143° Southeast  Level Estimated
05:12AM 41.7246 19.4156 143° Southeast  Level Estimated
05:13AM 41.6175 19.5214 144° Southeast  Level Estimated
05:14AM 41.5103 19.6269 144° Southeast  Level Estimated
05:15AM 41.4147 19.7206 144° Southeast  Level Estimated
05:16AM 41.4147 19.7206 21° North  Level Estimated
05:17AM 41.4147 19.7206 21° North  Level Estimated
05:18AM 41.4147 19.7206 21° North  Level Estimated
05:19AM 41.4147 19.7206 21° North  Level Estimated
05:20AM 41.4147 19.7206 21° North  Level Estimated
05:21AM 41.4147 19.7206 21° North  Level Estimated
05:22AM 41.4147 19.7206 21° North  Level Estimated
05:23AM 41.4147 19.7206 21° North  Level Estimated
05:24AM 41.4147 19.7206 21° North  Level Estimated
05:25AM 41.4147 19.7206 21° North  Level Estimated
05:26AM 41.4147 19.7206 21° North  Level Estimated
05:27AM 41.4147 19.7206 21° North  Level Estimated
05:28AM 41.4147 19.7206 21° North  Level Estimated
05:29AM 41.4147 19.7206 21° North  Level Estimated
05:30AM 41.4147 19.7206 21° North  Level Estimated